Linneus, MO

12:00 AM CDT on July 01, 2015 (GMT -0500)
Barlow Back Yard | | Change Station
CLOSE
Current Station
Personal Weather Station
Location: Hale, MO
Elevation: 755 ft
Nearby Weather Stations

Elev 755 ft 39.59 °N, 93.30 °W | Updated 8 minutes ago

Rain
Rain
72.7 °F
Feels Like 72.7 °F
N
0.0
Wind Variable Wind from South

Today
High -- | Low -- °F
--% Chance of Precip.
Yesterday
High -- | Low -- °F
Precip. -- in
5:47 AM 8:44 PM
Waxing Gibbous, 99% visible
Pressure 29.91 in
Visibility 3.0 miles
Clouds Few 11000 ft
Dew Point 72 °F
Humidity 98%
Rainfall in
Snow Depth Not available.
UV 0 out of 12
Pollen 4.60 out of 12
Air Quality Not available.
Flu Activity Not available.
METAR KIRK 010355Z AUTO 00000KT 3SM BR FEW110 21/20 A2992 RMK AO2 SLP127 T02110200

More Conditions Fewer Conditions

Pressure 29.91 in
Visibility 3.0 miles
Clouds Few 11000 ft
Dew Point 72 °F
Humidity 98%
Rainfall in
Snow Depth Not available.
UV 0 out of 12
Pollen 4.60 out of 12
Air Quality Not available.
Flu Activity Not available.
METAR KIRK 010355Z AUTO 00000KT 3SM BR FEW110 21/20 A2992 RMK AO2 SLP127 T02110200

More Conditions Fewer Conditions

10-Day Weather Forecast

×

Almanac

Astronomy

Jul. 01, 2015 Rise Set
Actual Time
Civil Twilight
Nautical Twilight
Astronomical Twilight
Moon
Length of Visible Light
Length of Day
Tomorrow will be .
, % of the Moon is Illuminated

Today's Extremes

State Highs State Lows

Community

WunderPhotos

Upload Photos

1,834,147 photos uploaded!

WunderBlogs® & News

Nearby

Air Quality

  Air Quality AQ Index Pollutant
Not available.

Snow Depth

Station Depth Elevation

Earthquake Activity

City Distance Mag. Time & Date
Minimum magnitude displayed is 2.5.

Coastal Water Temperatures

Place Temperature

Stations

Nearby Weather Stations

Station Location Temp. Windchill Dew Point Humidity Wind Precip. Elev Updated Type